ENTC Airport Information

Runway Information
Runway 01 Length 7848 ft width 148 ft
Elevation 25 ft Threshold 0 ft Heading 13
Runway 19 Length 7848 ft Width 148 ft
Elevation 13 ft Threshold 1286 ft Heading 193
Airport Frequencies
Type APP Name APP Frequency 123.75 MHZ
Type ATIS Name ATIS Frequency 126.125 MHZ
Type TWR Name TWR Frequency 118.3 MHZ
Airport Navaids
Type NDB Name Kobbe Frequency 283 KHZ
Type NDB Name Kvalsund Frequency 362 KHZ
Type NDB Name Lanes Frequency 268 KHZ
Type VOR-DME Name Tromso Frequency 113800 KHZ
Airport Weather Information & NOTAM
ADDS - METARS form results

(0933 UTC 23 September 2021)
Data provider http://aviationweather.gov/metar/data/
 
METAR text: ENTC 230920Z 16008KT 130V190 9999 FEW047 BKN110 12/04 Q0993 NOSIG RMK WIND 2600FT 17025KT
Conditions at: ENTC (TROMSO/LANGNES , NO) observed 0920 UTC 23 September 2021
Temperature: 12.0°C (54°F)
Dewpoint: 4.0°C (39°F) [RH = 58%]
Pressure (altimeter): 29.32 inches Hg (993.0 mb)
Winds: from the SSE (160 degrees) at 9 MPH (8 knots; 4.1 m/s)
Visibility: 6 or more miles (10+ km)
Ceiling: 11000 feet AGL
Clouds: few clouds at 4700 feet AGL
broken clouds at 11000 feet AGL
Weather: no significant weather observed at this time

METAR text: ENTC 230850Z VRB02KT 9999 FEW055 BKN110 11/05 Q0993 NOSIG RMK WIND 2600FT 17025KT
Conditions at: ENTC (TROMSO/LANGNES , NO) observed 0850 UTC 23 September 2021
Temperature: 11.0°C (52°F)
Dewpoint: 5.0°C (41°F) [RH = 66%]
Pressure (altimeter): 29.32 inches Hg (993.0 mb)
Winds: variable direction winds at 2 MPH (2 knots; 1.0 m/s)
Visibility: 6 or more miles (10+ km)
Ceiling: 11000 feet AGL
Clouds: few clouds at 5500 feet AGL
broken clouds at 11000 feet AGL
Weather: no significant weather observed at this time

Forecast for: ENTC (TROMSO/LANGNES , NO)
Text: TAF ENTC 2306/2406 20012KT 9999 FEW025 BKN040
Forecast period: 0600 UTC 23 September 2021 to 0600 UTC 24 September 2021
Forecast type: FROM: standard forecast or significant change
Winds: from the SSW (200 degrees) at 14 MPH (12 knots; 6.2 m/s)
Visibility: 6 or more miles (10+ km)
Ceiling: 4000 feet AGL
Clouds: few clouds at 2500 feet AGL
broken clouds at 4000 feet AGL
Weather: no significant weather forecast for this period
Text: TEMPO 2306/2406 VRB05KT
Forecast period: 0600 UTC 23 September 2021 to 0600 UTC 24 September 2021
Forecast type: TEMPORARY: The following changes expected for less than half the time period
Winds: variable direction winds at 6 MPH (5 knots; 2.6 m/s)
Visibility: missing
Ceiling: unknown
Clouds: missing
Weather: no significant weather forecast for this period